createdAt,value
2018-11-01T00:00:30.646Z,101408.85
2018-11-01T00:02:59.555Z,101407.21
2018-11-01T00:05:28.526Z,101394.20
2018-11-01T00:07:57.446Z,101390.49
2018-11-01T00:10:26.227Z,101259.32
2018-11-01T00:12:55.425Z,101379.27
2018-11-01T00:15:24.953Z,101373.25
2018-11-01T00:17:53.981Z,101359.66
2018-11-01T00:20:22.857Z,101359.37
2018-11-01T00:22:51.575Z,101356.44
2018-11-01T00:25:20.905Z,101354.66
2018-11-01T00:27:49.574Z,101353.61
2018-11-01T00:30:18.631Z,101350.82
2018-11-01T00:32:47.330Z,101344.22
2018-11-01T00:35:16.302Z,101336.38
2018-11-01T00:37:45.015Z,101337.36
2018-11-01T00:40:14.777Z,101340.78
2018-11-01T00:42:44.840Z,101339.08
2018-11-01T00:45:13.822Z,101343.22
2018-11-01T00:47:42.738Z,101346.11
2018-11-01T00:50:13.972Z,101348.03
2018-11-01T00:52:42.839Z,101340.72
2018-11-01T00:55:12.804Z,101352.30
2018-11-01T00:57:42.161Z,101347.52
2018-11-01T01:00:13.244Z,101344.86
2018-11-01T01:02:41.840Z,101343.38
2018-11-01T01:05:11.473Z,101343.39
2018-11-01T01:07:40.237Z,101349.88
2018-11-01T01:10:12.549Z,101350.22
2018-11-01T01:12:41.373Z,101349.99
2018-11-01T01:15:10.491Z,101346.38
2018-11-01T01:17:39.550Z,101342.14
2018-11-01T01:20:10.814Z,101338.64
2018-11-01T01:22:39.913Z,101327.27
2018-11-01T01:25:10.438Z,101322.41
2018-11-01T01:27:39.286Z,101324.00
2018-11-01T01:30:13.098Z,101319.67
2018-11-01T01:32:45.591Z,101309.48
2018-11-01T01:35:14.894Z,101304.41
2018-11-01T01:37:43.859Z,101305.58
2018-11-01T01:40:12.759Z,101297.02
2018-11-01T01:42:46.718Z,101288.13
2018-11-01T01:45:15.751Z,101296.12
2018-11-01T01:47:44.482Z,101300.48
2018-11-01T01:50:15.437Z,101304.77
2018-11-01T01:52:44.846Z,101313.11
2018-11-01T01:55:13.857Z,101305.11
2018-11-01T01:57:42.814Z,101302.95
2018-11-01T02:00:13.865Z,101293.63
2018-11-01T02:02:44.778Z,101290.75
2018-11-01T02:05:13.316Z,101283.72
2018-11-01T02:07:42.175Z,101274.38
2018-11-01T02:10:16.171Z,101275.63
2018-11-01T02:12:45.186Z,101275.00
2018-11-01T02:15:21.398Z,101268.79
2018-11-01T02:17:50.055Z,101268.79
2018-11-01T02:20:20.019Z,101266.48
2018-11-01T02:22:48.555Z,101269.33
2018-11-01T02:25:17.364Z,101262.30
2018-11-01T02:27:51.237Z,101261.84
2018-11-01T02:30:20.164Z,101255.62
2018-11-01T02:32:49.359Z,101246.44
2018-11-01T02:35:19.287Z,101231.62
2018-11-01T02:37:47.949Z,101229.70
2018-11-01T02:40:17.154Z,101223.19
2018-11-01T02:42:45.707Z,101222.96
2018-11-01T02:45:14.963Z,101226.20
2018-11-01T02:47:43.801Z,101218.59
2018-11-01T02:50:13.594Z,101223.08
2018-11-01T02:52:42.061Z,101219.25
2018-11-01T02:55:11.318Z,101218.77
2018-11-01T02:57:39.995Z,101216.83
2018-11-01T03:00:11.460Z,101215.76
2018-11-01T03:02:39.999Z,101213.22
2018-11-01T03:05:09.414Z,101214.36
2018-11-01T03:07:37.927Z,101219.44
2018-11-01T03:10:08.131Z,101220.31
2018-11-01T03:12:36.881Z,101235.98
2018-11-01T03:15:06.749Z,101233.94
2018-11-01T03:17:35.343Z,101239.13
2018-11-01T03:20:04.339Z,101238.00
2018-11-01T03:22:33.057Z,101218.89
2018-11-01T03:25:01.661Z,101208.11
2018-11-01T03:27:30.196Z,101202.28
2018-11-01T03:29:59.212Z,101203.89
2018-11-01T03:32:27.919Z,101210.09
2018-11-01T03:34:56.850Z,101198.56
2018-11-01T03:37:25.708Z,101192.42
2018-11-01T03:39:54.384Z,101187.34
2018-11-01T03:42:23.066Z,101185.59
2018-11-01T03:44:51.684Z,101190.98
2018-11-01T03:47:20.689Z,101196.79
2018-11-01T03:49:49.516Z,101186.63
2018-11-01T03:52:18.733Z,101204.27
2018-11-01T03:54:47.560Z,101193.30
2018-11-01T03:57:16.599Z,101193.86
2018-11-01T03:59:45.124Z,101174.95
2018-11-01T04:02:14.082Z,101166.60
2018-11-01T04:04:42.686Z,101171.89
2018-11-01T04:07:11.581Z,101162.33
2018-11-01T04:09:40.459Z,101166.66
2018-11-01T04:12:09.202Z,101161.76
2018-11-01T04:14:38.046Z,101163.53
2018-11-01T04:17:06.991Z,101146.13
2018-11-01T04:19:35.952Z,101154.55
2018-11-01T04:22:06.394Z,101160.09
2018-11-01T04:24:36.823Z,101151.39
2018-11-01T04:27:06.031Z,101154.20
2018-11-01T04:29:35.870Z,101157.12
2018-11-01T04:32:05.042Z,101157.03
2018-11-01T04:34:33.740Z,101150.06
2018-11-01T04:37:02.669Z,101144.15
2018-11-01T04:39:31.508Z,101145.57
2018-11-01T04:42:00.543Z,101136.50
2018-11-01T04:44:29.392Z,101144.19
2018-11-01T04:46:58.200Z,101142.53
2018-11-01T04:49:26.984Z,101145.23
2018-11-01T04:51:55.630Z,101151.13
2018-11-01T04:54:24.715Z,101147.46
2018-11-01T04:56:53.234Z,101147.61
2018-11-01T04:59:21.892Z,101139.18
2018-11-01T05:04:46.368Z,101136.32
2018-11-01T05:07:15.147Z,101121.96
2018-11-01T05:09:44.019Z,101115.65
2018-11-01T05:12:13.014Z,101116.44
2018-11-01T05:14:42.106Z,101117.42
2018-11-01T05:17:10.954Z,101122.60
2018-11-01T05:19:39.897Z,101121.82
2018-11-01T05:22:08.829Z,101132.55
2018-11-01T05:24:37.716Z,101137.09
2018-11-01T05:27:06.983Z,101139.45
2018-11-01T05:29:35.667Z,101153.70
2018-11-01T05:32:04.746Z,101157.92
2018-11-01T05:34:33.438Z,101166.83
2018-11-01T05:37:02.325Z,101174.11
2018-11-01T05:39:31.045Z,101173.83
2018-11-01T05:41:59.938Z,101120.86
2018-11-01T05:44:28.666Z,101163.88
2018-11-01T05:46:57.370Z,101154.23
2018-11-01T05:49:26.034Z,101136.84
2018-11-01T05:51:54.871Z,101119.20
2018-11-01T05:54:23.941Z,101120.33
2018-11-01T05:56:52.722Z,101112.64
2018-11-01T05:59:21.695Z,101103.67
2018-11-01T06:01:52.379Z,101103.24
2018-11-01T06:04:21.019Z,101104.50
2018-11-01T06:06:49.766Z,101099.08
2018-11-01T06:09:24.849Z,101091.86
2018-11-01T06:11:53.713Z,101099.86
2018-11-01T06:14:22.635Z,101103.44
2018-11-01T06:16:51.436Z,101095.86
2018-11-01T06:19:20.083Z,101089.20
2018-11-01T06:21:48.834Z,101077.14
2018-11-01T06:24:18.080Z,101073.83
2018-11-01T06:26:47.056Z,101081.30
2018-11-01T06:29:15.893Z,101078.88
2018-11-01T06:31:44.647Z,101080.45
2018-11-01T06:34:20.727Z,101078.47
2018-11-01T06:36:50.691Z,101085.94
2018-11-01T06:39:21.703Z,101094.09
2018-11-01T06:41:52.067Z,101083.97
2018-11-01T06:44:21.012Z,101083.31
2018-11-01T06:46:50.119Z,101074.30
2018-11-01T06:49:19.860Z,101080.28
2018-11-01T06:51:48.925Z,101071.80
2018-11-01T06:54:18.050Z,101069.16
2018-11-01T06:56:47.481Z,101063.78
2018-11-01T06:59:16.762Z,101061.22
2018-11-01T07:01:45.490Z,101062.24
2018-11-01T07:04:14.298Z,101065.68
2018-11-01T07:06:43.082Z,101066.39
2018-11-01T07:09:13.545Z,101066.95
2018-11-01T07:11:42.773Z,101061.91
2018-11-01T07:14:11.843Z,101058.59
2018-11-01T07:16:40.606Z,101060.05
2018-11-01T07:19:09.832Z,101044.66
2018-11-01T07:21:38.475Z,101048.43
2018-11-01T07:24:07.365Z,101056.77
2018-11-01T07:26:36.351Z,101072.23
2018-11-01T07:29:05.368Z,101067.03
2018-11-01T07:31:34.341Z,101063.53
2018-11-01T07:34:03.195Z,101057.59
2018-11-01T07:36:31.934Z,101060.70
2018-11-01T07:39:00.721Z,101057.23
2018-11-01T07:41:29.986Z,101053.14
2018-11-01T07:43:58.759Z,101048.64
2018-11-01T07:46:27.566Z,101034.68
2018-11-01T07:48:56.267Z,101031.84
2018-11-01T07:51:25.097Z,101018.78
2018-11-01T07:53:54.102Z,101018.11
2018-11-01T07:56:23.312Z,101015.26
2018-11-01T07:58:52.119Z,101003.80
2018-11-01T08:01:21.030Z,100993.59
2018-11-01T08:03:50.003Z,100981.03
2018-11-01T08:06:18.794Z,100982.14
2018-11-01T08:08:47.697Z,100989.36
2018-11-01T08:11:16.680Z,101009.87
2018-11-01T08:13:45.412Z,101004.14
2018-11-01T08:16:14.302Z,100989.12
2018-11-01T08:18:43.794Z,100989.67
2018-11-01T08:21:12.754Z,100988.60
2018-11-01T08:23:41.327Z,100992.98
2018-11-01T08:26:10.290Z,100995.14
2018-11-01T08:28:39.026Z,100997.34
2018-11-01T08:31:07.747Z,100997.09
2018-11-01T08:33:36.723Z,100995.46
2018-11-01T08:36:05.863Z,100985.36
2018-11-01T08:38:34.603Z,100976.09
2018-11-01T08:41:03.360Z,100969.50
2018-11-01T08:43:32.265Z,100986.23
2018-11-01T08:46:01.206Z,100991.17
2018-11-01T08:48:29.971Z,100995.55
2018-11-01T08:50:59.131Z,100983.23
2018-11-01T08:53:27.911Z,100988.18
2018-11-01T08:55:56.689Z,100981.60
2018-11-01T08:58:25.563Z,100962.97
2018-11-01T09:00:54.611Z,100956.98
2018-11-01T09:03:23.385Z,100952.59
2018-11-01T09:05:52.073Z,100946.02
2018-11-01T09:08:20.875Z,100956.14
2018-11-01T09:10:49.647Z,100961.83
2018-11-01T09:13:18.358Z,100968.77
2018-11-01T09:15:47.143Z,100968.22
2018-11-01T09:18:16.121Z,100968.73
2018-11-01T09:20:45.009Z,100969.47
2018-11-01T09:23:13.684Z,100920.28
2018-11-01T09:25:42.631Z,100964.83
2018-11-01T09:28:11.307Z,100977.49
2018-11-01T09:30:40.563Z,100977.95
2018-11-01T09:33:09.368Z,100970.53
2018-11-01T09:35:38.139Z,100968.16
2018-11-01T09:38:06.951Z,100964.61
2018-11-01T09:40:35.733Z,100971.36
2018-11-01T09:43:04.814Z,100963.41
2018-11-01T09:45:33.443Z,100960.81
2018-11-01T09:48:02.372Z,100948.89
2018-11-01T09:50:31.195Z,100944.78
2018-11-01T09:53:00.084Z,100940.29
2018-11-01T09:55:29.431Z,100939.64
2018-11-01T09:57:58.223Z,100942.22
2018-11-01T10:00:27.229Z,100937.80
2018-11-01T10:02:56.130Z,100938.47
2018-11-01T10:05:25.135Z,100941.33
2018-11-01T10:07:54.124Z,100940.12
2018-11-01T10:10:23.955Z,100931.77
2018-11-01T10:12:52.777Z,100931.84
2018-11-01T10:15:21.485Z,100917.21
2018-11-01T10:17:50.479Z,100910.85
2018-11-01T10:20:19.198Z,100918.28
2018-11-01T10:22:48.034Z,100923.02
2018-11-01T10:25:17.084Z,100919.91
2018-11-01T10:27:46.044Z,100910.17
2018-11-01T10:30:16.718Z,100911.35
2018-11-01T10:32:45.930Z,100899.75
2018-11-01T10:35:15.448Z,100897.70
2018-11-01T10:37:44.316Z,100892.45
2018-11-01T10:40:17.559Z,100886.69
2018-11-01T10:42:46.313Z,100876.95
2018-11-01T10:45:15.662Z,100867.75
2018-11-01T10:47:44.828Z,100867.39
2018-11-01T10:50:15.697Z,100880.23
2018-11-01T10:52:44.560Z,100880.92
2018-11-01T10:55:13.963Z,100878.17
2018-11-01T10:57:42.861Z,100874.57
2018-11-01T11:00:20.092Z,100872.30
2018-11-01T11:02:50.197Z,100856.05
2018-11-01T11:05:20.158Z,100853.96
2018-11-01T11:07:49.450Z,100844.09
2018-11-01T11:10:18.563Z,100838.31
2018-11-01T11:12:47.230Z,100827.68
2018-11-01T11:15:16.082Z,100836.58
2018-11-01T11:17:44.825Z,100834.49
2018-11-01T11:20:14.040Z,100833.63
2018-11-01T11:22:42.745Z,100842.48
2018-11-01T11:25:12.613Z,100841.25
2018-11-01T11:27:41.712Z,100834.38
2018-11-01T11:30:11.192Z,100835.38
2018-11-01T11:32:40.020Z,100827.77
2018-11-01T11:35:09.737Z,100822.91
2018-11-01T11:37:38.504Z,100819.25
2018-11-01T11:40:09.023Z,100815.50
2018-11-01T11:42:37.848Z,100812.66
2018-11-01T11:45:07.510Z,100804.22
2018-11-01T11:47:36.223Z,100806.90
2018-11-01T11:50:06.066Z,100807.81
2018-11-01T11:52:34.777Z,100804.15
2018-11-01T11:55:03.460Z,100814.77
2018-11-01T11:57:32.926Z,100817.06
2018-11-01T12:00:01.968Z,100815.89
2018-11-01T12:02:31.408Z,100819.16
2018-11-01T12:05:02.965Z,100813.75
2018-11-01T12:07:37.663Z,100813.88
2018-11-01T12:10:08.611Z,100809.57
2018-11-01T12:12:37.367Z,100810.16
2018-11-01T12:15:06.537Z,100815.95
2018-11-01T12:17:35.363Z,100812.38
2018-11-01T12:20:04.439Z,100811.67
2018-11-01T12:22:33.972Z,100815.56
2018-11-01T12:25:02.843Z,100814.92
2018-11-01T12:27:32.179Z,100816.45
2018-11-01T12:30:00.870Z,100803.31
2018-11-01T12:32:29.942Z,100808.05
2018-11-01T12:34:59.389Z,100814.77
2018-11-01T12:37:28.306Z,100817.77
2018-11-01T12:39:57.414Z,100810.83
2018-11-01T12:42:27.981Z,100820.83
2018-11-01T12:44:56.965Z,100824.92
2018-11-01T12:47:25.964Z,100820.28
2018-11-01T12:49:54.906Z,100810.07
2018-11-01T12:52:23.711Z,100797.55
2018-11-01T12:54:52.347Z,100796.87
2018-11-01T12:57:21.102Z,100783.98
2018-11-01T12:59:50.057Z,100775.91
2018-11-01T13:02:18.932Z,100766.37
2018-11-01T13:04:47.753Z,100771.78
2018-11-01T13:07:16.469Z,100770.59
2018-11-01T13:09:45.523Z,100778.22
2018-11-01T13:12:14.454Z,100769.03
2018-11-01T13:14:43.263Z,100758.92
2018-11-01T13:17:12.026Z,100746.50
2018-11-01T13:19:41.320Z,100746.76
2018-11-01T13:22:10.059Z,100740.45
2018-11-01T13:24:39.138Z,100730.61
2018-11-01T13:27:07.928Z,100727.52
2018-11-01T13:29:36.678Z,100726.27
2018-11-01T13:32:05.783Z,100718.58
2018-11-01T13:34:35.584Z,100713.61
2018-11-01T13:37:04.355Z,100709.66
2018-11-01T13:39:33.566Z,100686.77
2018-11-01T13:42:02.625Z,100677.16
2018-11-01T13:44:31.449Z,100676.66
2018-11-01T13:47:00.227Z,100683.49
2018-11-01T13:49:29.016Z,100679.88
2018-11-01T13:51:58.219Z,100691.06
2018-11-01T13:54:26.940Z,100697.83
2018-11-01T13:56:55.707Z,100708.83
2018-11-01T13:59:25.306Z,100704.27
2018-11-01T14:01:54.775Z,100706.30
2018-11-01T14:04:24.028Z,100703.64
2018-11-01T14:06:54.319Z,100691.15
2018-11-01T14:09:24.338Z,100706.56
2018-11-01T14:11:54.280Z,100719.57
2018-11-01T14:14:23.886Z,100698.93
2018-11-01T14:16:55.676Z,100689.60
2018-11-01T14:19:24.819Z,100684.93
2018-11-01T14:21:53.650Z,100679.64
2018-11-01T14:24:24.926Z,100674.94
2018-11-01T14:26:55.477Z,100670.87
2018-11-01T14:29:33.448Z,100683.00
2018-11-01T14:32:02.463Z,100688.27
2018-11-01T14:34:32.695Z,100695.27
2018-11-01T14:37:01.751Z,100700.24
2018-11-01T14:39:30.433Z,100707.17
2018-11-01T14:41:59.271Z,100710.66
2018-11-01T14:44:28.092Z,100700.89
2018-11-01T14:46:56.845Z,100696.04
2018-11-01T14:49:25.629Z,100705.10
2018-11-01T14:51:54.580Z,100713.61
2018-11-01T14:54:24.452Z,100713.48
2018-11-01T14:56:53.866Z,100710.39
2018-11-01T14:59:23.360Z,100708.52
2018-11-01T15:01:50.508Z,100723.06
2018-11-01T15:04:19.384Z,100728.64
2018-11-01T15:06:48.872Z,100708.84
2018-11-01T15:09:17.713Z,100687.05
2018-11-01T15:11:46.557Z,100682.98
2018-11-01T15:14:15.435Z,100698.63
2018-11-01T15:16:44.468Z,100688.39
2018-11-01T15:19:13.376Z,100685.30
2018-11-01T15:21:42.232Z,100696.08
2018-11-01T15:24:10.979Z,100677.39
2018-11-01T15:26:40.205Z,100667.48
2018-11-01T15:29:09.850Z,100671.58
2018-11-01T15:31:38.632Z,100664.80
2018-11-01T15:34:08.223Z,100659.70
2018-11-01T15:36:39.104Z,100657.61
2018-11-01T15:39:10.231Z,100646.25
2018-11-01T15:41:39.090Z,100650.16
2018-11-01T15:44:08.175Z,100655.15
2018-11-01T15:46:37.256Z,100656.39
2018-11-01T15:49:06.920Z,100659.39
2018-11-01T15:51:35.627Z,100663.58
2018-11-01T15:54:04.585Z,100675.45
2018-11-01T15:56:33.445Z,100670.59
2018-11-01T15:59:02.335Z,100663.25
2018-11-01T16:01:31.163Z,100659.56
2018-11-01T16:04:00.080Z,100652.70
2018-11-01T16:06:29.118Z,100648.73
2018-11-01T16:08:59.236Z,100650.16
2018-11-01T16:11:28.797Z,100660.50
2018-11-01T16:13:57.515Z,100658.36
2018-11-01T16:16:26.375Z,100667.48
2018-11-01T16:18:55.115Z,100674.98
2018-11-01T16:21:24.311Z,100673.73
2018-11-01T16:23:53.047Z,100667.57
2018-11-01T16:26:21.798Z,100663.50
2018-11-01T16:28:50.646Z,100671.95
2018-11-01T16:31:19.370Z,100664.19
2018-11-01T16:33:48.420Z,100657.28
2018-11-01T16:36:17.480Z,100654.14
2018-11-01T16:38:46.670Z,100671.27
2018-11-01T16:41:15.363Z,100671.26
2018-11-01T16:43:44.211Z,100665.45
2018-11-01T16:46:13.242Z,100673.38
2018-11-01T16:48:42.404Z,100673.23
2018-11-01T16:51:11.457Z,100666.69
2018-11-01T16:53:44.206Z,100672.91
2018-11-01T16:56:15.511Z,100672.37
2018-11-01T16:58:44.119Z,100664.19
2018-11-01T17:01:12.884Z,100658.59
2018-11-01T17:03:41.701Z,100665.64
2018-11-01T17:06:10.725Z,100663.17
2018-11-01T17:09:42.100Z,100669.91
2018-11-01T17:12:11.128Z,100664.19
2018-11-01T17:14:40.222Z,100660.36
2018-11-01T17:17:09.157Z,100663.81
2018-11-01T17:19:44.810Z,100675.09
2018-11-01T17:22:13.707Z,100681.33
2018-11-01T17:24:42.547Z,100669.89
2018-11-01T17:27:11.468Z,100668.52
2018-11-01T17:29:40.118Z,100660.30
2018-11-01T17:32:09.735Z,100659.04
2018-11-01T17:34:40.136Z,100666.80
2018-11-01T17:37:09.888Z,100666.65
2018-11-01T17:39:38.752Z,100671.63
2018-11-01T17:42:08.384Z,100668.66
2018-11-01T17:44:37.153Z,100667.65
2018-11-01T17:47:06.075Z,100668.29
2018-11-01T17:49:34.940Z,100676.82
2018-11-01T17:52:03.775Z,100685.07
2018-11-01T17:54:32.915Z,100677.95
2018-11-01T17:57:01.802Z,100676.39
2018-11-01T17:59:30.607Z,100674.28
2018-11-01T18:01:59.615Z,100677.29
2018-11-01T18:04:28.473Z,100677.33
2018-11-01T18:06:57.301Z,100673.73
2018-11-01T18:09:26.419Z,100670.28
2018-11-01T18:11:55.263Z,100675.79
2018-11-01T18:14:24.177Z,100673.46
2018-11-01T18:16:53.017Z,100667.95
2018-11-01T18:19:22.096Z,100669.46
2018-11-01T18:21:53.923Z,100667.34
2018-11-01T18:24:23.005Z,100668.44
2018-11-01T18:26:52.189Z,100662.75
2018-11-01T18:29:21.256Z,100657.31
2018-11-01T18:31:50.203Z,100655.98
2018-11-01T18:34:19.248Z,100650.78
2018-11-01T18:36:48.152Z,100640.42
2018-11-01T18:39:17.021Z,100634.70
2018-11-01T18:41:45.722Z,100625.14
2018-11-01T18:44:14.616Z,100639.08
2018-11-01T18:46:43.451Z,100642.94
2018-11-01T18:49:12.477Z,100648.65
2018-11-01T18:51:41.449Z,100642.69
2018-11-01T18:54:10.431Z,100636.72
2018-11-01T18:56:39.544Z,100645.72
2018-11-01T18:59:08.783Z,100649.57
2018-11-01T19:01:37.611Z,100642.77
2018-11-01T19:04:06.777Z,100649.31
2018-11-01T19:06:35.583Z,100656.95
2018-11-01T19:09:05.551Z,100658.02
2018-11-01T19:11:34.486Z,100657.14
2018-11-01T19:14:03.317Z,100662.64
2018-11-01T19:16:32.280Z,100662.39
2018-11-01T19:19:01.131Z,100664.23
2018-11-01T19:21:29.950Z,100662.98
2018-11-01T19:23:58.757Z,100666.84
2018-11-01T19:26:27.897Z,100666.58
2018-11-01T19:28:56.557Z,100665.97
2018-11-01T19:31:25.295Z,100661.64
2018-11-01T19:33:54.329Z,100673.71
2018-11-01T19:36:23.102Z,100669.89
2018-11-01T19:38:52.077Z,100678.53
2018-11-01T19:41:21.366Z,100681.37
2018-11-01T19:43:50.112Z,100677.23
2018-11-01T19:46:19.323Z,100684.13
2018-11-01T19:48:48.202Z,100694.48
2018-11-01T19:51:17.153Z,100697.23
2018-11-01T19:53:46.510Z,100707.33
2018-11-01T19:56:15.209Z,100717.14
2018-11-01T19:58:44.110Z,100722.34
2018-11-01T20:01:12.966Z,100720.98
2018-11-01T20:03:41.754Z,100729.72
2018-11-01T20:06:10.630Z,100734.34
2018-11-01T20:08:39.547Z,100739.50
2018-11-01T20:11:08.311Z,100739.53
2018-11-01T20:13:37.107Z,100740.87
2018-11-01T20:16:06.096Z,100751.50
2018-11-01T20:18:34.919Z,100757.00
2018-11-01T20:21:03.587Z,100758.60
2018-11-01T20:23:32.264Z,100761.05
2018-11-01T20:26:01.195Z,100761.86
2018-11-01T20:28:30.376Z,100762.67
2018-11-01T20:30:59.308Z,100774.44
2018-11-01T20:33:28.101Z,100768.98
2018-11-01T20:35:56.880Z,100769.84
2018-11-01T20:38:25.806Z,100775.04
2018-11-01T20:40:54.578Z,100776.66
2018-11-01T20:43:23.729Z,100780.20
2018-11-01T20:45:52.397Z,100784.58
2018-11-01T20:48:21.148Z,100797.66
2018-11-01T20:50:56.615Z,100800.11
2018-11-01T20:53:25.370Z,100790.31
2018-11-01T20:55:54.023Z,100795.22
2018-11-01T20:58:22.653Z,100788.11
2018-11-01T21:00:51.479Z,100811.01
2018-11-01T21:03:20.370Z,100803.92
2018-11-01T21:05:49.172Z,100804.16
2018-11-01T21:08:18.307Z,100796.52
2018-11-01T21:10:47.378Z,100804.98
2018-11-01T21:13:16.548Z,100797.62
2018-11-01T21:15:45.357Z,100791.30
2018-11-01T21:18:14.530Z,100799.22
2018-11-01T21:20:43.313Z,100802.80
2018-11-01T21:23:12.100Z,100813.70
2018-11-01T21:25:41.628Z,100808.67
2018-11-01T21:28:11.208Z,100809.53
2018-11-01T21:30:40.125Z,100813.06
2018-11-01T21:33:09.003Z,100808.11
2018-11-01T21:35:37.883Z,100808.86
2018-11-01T21:38:07.411Z,100818.40
2018-11-01T21:40:36.301Z,100821.36
2018-11-01T21:43:05.580Z,100824.88
2018-11-01T21:45:34.335Z,100833.08
2018-11-01T21:48:04.408Z,100832.36
2018-11-01T21:50:33.563Z,100844.63
2018-11-01T21:53:03.059Z,100852.00
2018-11-01T21:55:32.006Z,100849.80
2018-11-01T21:58:01.097Z,100860.21
2018-11-01T22:00:30.194Z,100870.53
2018-11-01T22:02:59.671Z,100879.50
2018-11-01T22:05:28.355Z,100881.00
2018-11-01T22:07:57.494Z,100885.84
2018-11-01T22:10:26.168Z,100890.44
2018-11-01T22:12:55.276Z,100894.73
2018-11-01T22:15:24.231Z,100892.62
2018-11-01T22:17:53.094Z,100903.94
2018-11-01T22:20:22.358Z,100903.78
2018-11-01T22:22:51.425Z,100911.70
2018-11-01T22:25:20.326Z,100905.14
2018-11-01T22:27:49.708Z,100920.68
2018-11-01T22:30:19.134Z,100928.61
2018-11-01T22:32:48.460Z,100934.59
2018-11-01T22:35:17.627Z,100943.94
2018-11-01T22:37:46.928Z,100944.41
2018-11-01T22:40:15.916Z,100950.59
2018-11-01T22:42:45.540Z,100958.91
2018-11-01T22:45:14.679Z,100955.22
2018-11-01T22:47:43.703Z,100964.34
2018-11-01T22:50:12.669Z,100969.69
2018-11-01T22:52:41.979Z,100984.65
2018-11-01T22:55:11.880Z,100987.60
2018-11-01T22:57:40.907Z,100983.77
2018-11-01T23:00:13.088Z,100995.71
2018-11-01T23:02:42.046Z,100997.52
2018-11-01T23:05:11.271Z,101005.53
2018-11-01T23:07:46.722Z,101020.05
2018-11-01T23:10:16.294Z,101017.55
2018-11-01T23:12:45.307Z,101014.77
2018-11-01T23:15:14.824Z,101019.84
2018-11-01T23:17:44.175Z,101023.86
2018-11-01T23:20:13.461Z,101027.13
2018-11-01T23:22:43.138Z,101030.58
2018-11-01T23:25:12.491Z,101045.00
2018-11-01T23:27:41.532Z,101033.08
2018-11-01T23:30:10.739Z,101031.31
2018-11-01T23:32:39.532Z,101040.50
2018-11-01T23:35:08.601Z,101048.42
2018-11-01T23:37:42.566Z,101048.20
2018-11-01T23:40:16.757Z,101054.92
2018-11-01T23:42:50.975Z,101056.05
2018-11-01T23:45:24.849Z,101053.12
2018-11-01T23:47:58.744Z,101056.88
2018-11-01T23:51:05.166Z,101062.31
2018-11-01T23:53:42.835Z,101062.70
2018-11-01T23:56:12.681Z,101076.38
2018-11-01T23:58:41.617Z,101083.85
